Time;durP1;ratioP1;P1;durP2;ratioP2;P2;SDS_P1;SDS_P2;PMS_P1;PMS_P2;Temp;Humidity;BMP_temperature;BMP_pressure;BME280_temperature;BME280_humidity;BME280_pressure;Samples;Min_cycle;Max_cycle;Signal;HPM_P1;HPM_P2
2022/10/16 13:11:59;;;;;;;25.33;14.33;;;;;;;;;;6329148;22;20080;-94
2022/10/16 13:14:30;;;;;;;27.40;15.30;;;;;;;;;;6314603;22;20021;-95
2022/10/16 13:17:18;;;;;;;24.67;14.73;;;;;;;;;;6314814;22;20003;-95
2022/10/16 13:20:07;;;;;;;24.15;13.88;;;;;;;;;;6313529;22;20002;-94
2022/10/16 13:22:39;;;;;;;20.08;13.40;;;;;;;;;;6314139;22;20051;-96
2022/10/16 13:25:24;;;;;;;21.50;14.23;;;;;;;;;;6313235;22;20319;-90
2022/10/16 13:27:50;;;;;;;21.67;13.50;;;;;;;;;;6314198;22;20026;-90
2022/10/16 13:30:18;;;;;;;23.48;13.48;;;;;;;;;;6312876;22;20006;-92
2022/10/16 13:32:49;;;;;;;26.42;14.20;;;;;;;;;;6313502;22;20327;-91
2022/10/16 13:35:34;;;;;;;21.98;13.13;;;;;;;;;;6313247;22;20015;-93
2022/10/16 13:38:56;;;;;;;23.42;13.98;;;;;;;;;;6313997;22;20006;-94
2022/10/16 13:41:15;;;;;;;19.63;13.00;;;;;;;;;;6312467;22;19999;-93
2022/10/16 13:43:46;;;;;;;22.20;13.07;;;;;;;;;;6313325;22;20006;-92
2022/10/16 13:46:16;;;;;;;19.00;12.88;;;;;;;;;;6312989;22;20091;-91
2022/10/16 13:48:42;;;;;;;24.00;13.43;;;;;;;;;;6314942;22;20627;-94
2022/10/16 13:51:31;;;;;;;23.30;13.25;;;;;;;;;;6312957;22;20529;-91
2022/10/16 13:54:18;;;;;;;22.35;12.55;;;;;;;;;;6294364;22;20014;-94
2022/10/16 13:56:44;;;;;;;21.73;12.93;;;;;;;;;;6313016;22;20029;-91
2022/10/16 13:59:28;;;;;;;19.73;12.73;;;;;;;;;;6313209;22;20002;-93
2022/10/16 14:01:56;;;;;;;21.13;12.57;;;;;;;;;;6312716;22;20048;-91
2022/10/16 14:04:24;;;;;;;22.48;13.32;;;;;;;;;;6313209;22;20034;-92
2022/10/16 14:06:51;;;;;;;22.23;13.23;;;;;;;;;;6314584;22;20064;-91
2022/10/16 14:09:17;;;;;;;22.55;12.77;;;;;;;;;;6314525;22;20006;-91
2022/10/16 14:11:48;;;;;;;19.48;12.23;;;;;;;;;;6307734;22;20026;-93
2022/10/16 14:14:15;;;;;;;21.02;12.10;;;;;;;;;;6308801;22;20011;-91
2022/10/16 14:16:52;;;;;;;19.73;12.95;;;;;;;;;;6308652;22;20419;-92
2022/10/16 14:19:34;;;;;;;19.48;13.13;;;;;;;;;;6311330;22;20007;-96
2022/10/16 14:22:02;;;;;;;20.00;12.15;;;;;;;;;;6311614;22;20003;-92
2022/10/16 14:24:31;;;;;;;26.02;13.30;;;;;;;;;;6308448;22;20026;-93
2022/10/16 14:26:57;;;;;;;21.98;13.35;;;;;;;;;;6308174;22;20420;-91
2022/10/16 14:29:24;;;;;;;28.30;13.57;;;;;;;;;;6307749;22;20003;-91
2022/10/16 14:32:04;;;;;;;19.40;12.68;;;;;;;;;;6307856;22;20018;-91
2022/10/16 14:34:35;;;;;;;20.70;12.75;;;;;;;;;;6307643;22;20015;-92
2022/10/16 14:37:06;;;;;;;22.33;13.02;;;;;;;;;;6307796;22;20010;-91
2022/10/16 14:39:33;;;;;;;24.30;14.30;;;;;;;;;;6307930;22;20003;-91
2022/10/16 14:41:59;;;;;;;21.98;13.65;;;;;;;;;;6307362;22;20037;-93
2022/10/16 14:44:28;;;;;;;25.52;13.95;;;;;;;;;;6307992;22;20428;-92
2022/10/16 14:46:55;;;;;;;21.73;12.60;;;;;;;;;;6307723;22;20420;-93
2022/10/16 14:49:22;;;;;;;22.35;14.15;;;;;;;;;;6307348;22;20035;-91
2022/10/16 14:51:48;;;;;;;20.58;13.85;;;;;;;;;;6307590;22;19999;-92
2022/10/16 14:54:16;;;;;;;24.70;14.13;;;;;;;;;;6307940;22;20043;-93
2022/10/16 14:57:14;;;;;;;22.33;13.43;;;;;;;;;;6308622;22;20081;-92
2022/10/16 14:59:44;;;;;;;22.65;13.57;;;;;;;;;;6241065;22;20008;-93
2022/10/16 15:02:20;;;;;;;21.83;14.30;;;;;;;;;;6308406;22;20010;-91
2022/10/16 15:04:46;;;;;;;22.17;14.32;;;;;;;;;;6312092;22;20010;-91
2022/10/16 15:07:12;;;;;;;20.55;14.40;;;;;;;;;;6320046;22;20011;-92
2022/10/16 15:09:38;;;;;;;22.27;14.75;;;;;;;;;;6317771;22;19987;-93
2022/10/16 15:12:06;;;;;;;22.50;15.07;;;;;;;;;;6312598;22;20019;-92
2022/10/16 15:14:32;;;;;;;22.25;14.00;;;;;;;;;;6313368;22;20015;-93
2022/10/16 15:16:58;;;;;;;20.80;14.15;;;;;;;;;;6314307;22;19999;-92
2022/10/16 15:19:24;;;;;;;25.75;15.43;;;;;;;;;;6313904;22;20035;-91
2022/10/16 15:21:52;;;;;;;23.23;15.15;;;;;;;;;;6313666;22;20014;-91
2022/10/16 15:24:21;;;;;;;34.35;19.80;;;;;;;;;;6312035;22;20086;-92
2022/10/16 15:26:53;;;;;;;33.03;18.05;;;;;;;;;;6316260;22;20371;-92
2022/10/16 15:29:19;;;;;;;27.38;16.48;;;;;;;;;;6317456;22;20030;-91
2022/10/16 15:31:47;;;;;;;26.70;16.35;;;;;;;;;;6318815;22;20003;-92
2022/10/16 15:34:37;;;;;;;27.70;16.20;;;;;;;;;;6315624;22;20042;-93
2022/10/16 15:37:06;;;;;;;24.35;14.65;;;;;;;;;;6314717;22;20007;-92
2022/10/16 15:39:32;;;;;;;26.77;15.52;;;;;;;;;;6314697;22;20082;-91
2022/10/16 15:42:09;;;;;;;32.92;18.20;;;;;;;;;;6288925;22;20023;-92
2022/10/16 15:44:35;;;;;;;31.20;16.67;;;;;;;;;;6315336;22;20009;-93
2022/10/16 15:47:11;;;;;;;32.50;17.02;;;;;;;;;;6314595;22;20007;-92
2022/10/16 15:50:04;;;;;;;32.88;17.30;;;;;;;;;;6314174;22;20332;-92
2022/10/16 15:52:38;;;;;;;34.50;20.17;;;;;;;;;;6317004;22;19999;-93
2022/10/16 15:55:11;;;;;;;34.75;19.20;;;;;;;;;;6313930;22;20015;-92
2022/10/16 15:58:12;;;;;;;37.80;21.60;;;;;;;;;;6313188;22;20029;-92
2022/10/16 16:00:38;;;;;;;35.80;22.23;;;;;;;;;;6312053;22;19987;-90
2022/10/16 16:03:07;;;;;;;30.90;20.33;;;;;;;;;;6315723;22;20007;-91
2022/10/16 16:05:35;;;;;;;32.67;19.67;;;;;;;;;;6313411;22;20025;-92
2022/10/16 16:08:01;;;;;;;28.30;18.38;;;;;;;;;;6318032;22;20046;-93
2022/10/16 16:10:27;;;;;;;26.88;16.75;;;;;;;;;;6315756;22;20023;-93
2022/10/16 16:13:05;;;;;;;26.33;16.42;;;;;;;;;;6310474;22;20011;-91
2022/10/16 16:15:31;;;;;;;25.80;15.43;;;;;;;;;;6310160;22;20015;-94
2022/10/16 16:17:57;;;;;;;24.17;14.82;;;;;;;;;;6310083;22;20010;-94
2022/10/16 16:20:23;;;;;;;25.40;15.50;;;;;;;;;;6310773;22;20012;-90
2022/10/16 16:22:52;;;;;;;22.40;15.65;;;;;;;;;;6309822;22;20412;-94
2022/10/16 16:25:18;;;;;;;25.85;15.70;;;;;;;;;;6313969;22;20018;-91
2022/10/16 16:27:44;;;;;;;23.70;15.10;;;;;;;;;;6328841;22;19995;-96
2022/10/16 16:30:11;;;;;;;24.73;14.45;;;;;;;;;;6312380;22;19999;-94
2022/10/16 16:32:37;;;;;;;21.17;13.98;;;;;;;;;;6309708;22;20000;-93
2022/10/16 16:35:12;;;;;;;23.23;14.50;;;;;;;;;;6310384;22;20531;-93
2022/10/16 16:37:38;;;;;;;25.50;14.75;;;;;;;;;;6309656;22;20328;-93
2022/10/16 16:40:05;;;;;;;35.33;14.93;;;;;;;;;;6311564;22;20010;-92
2022/10/16 16:42:31;;;;;;;25.00;15.25;;;;;;;;;;6313044;22;20049;-91
2022/10/16 16:44:57;;;;;;;25.92;15.30;;;;;;;;;;6319671;22;20007;-92
2022/10/16 16:47:33;;;;;;;26.35;16.15;;;;;;;;;;6311741;22;20007;-94
2022/10/16 16:50:04;;;;;;;26.83;16.40;;;;;;;;;;6311246;22;20010;-95
2022/10/16 16:52:30;;;;;;;25.85;16.67;;;;;;;;;;6309667;22;19995;-93
2022/10/16 16:54:56;;;;;;;26.73;16.83;;;;;;;;;;6308134;22;20094;-95
2022/10/16 16:57:22;;;;;;;26.92;16.23;;;;;;;;;;6308912;22;20007;-92
2022/10/16 16:59:52;;;;;;;26.95;16.20;;;;;;;;;;6309010;22;20026;-94
2022/10/16 17:02:18;;;;;;;24.92;14.45;;;;;;;;;;6309275;22;20328;-93
2022/10/16 17:04:44;;;;;;;21.77;13.80;;;;;;;;;;6309042;22;20003;-94
2022/10/16 17:07:16;;;;;;;22.88;13.98;;;;;;;;;;6308151;22;20463;-93
2022/10/16 17:09:43;;;;;;;21.13;13.73;;;;;;;;;;6310295;22;20194;-94
2022/10/16 17:12:09;;;;;;;23.20;13.38;;;;;;;;;;6308287;22;20003;-91
2022/10/16 17:14:35;;;;;;;24.92;12.73;;;;;;;;;;6307755;22;20114;-92
2022/10/16 17:17:06;;;;;;;26.02;13.50;;;;;;;;;;6308569;22;20007;-93
2022/10/16 17:19:33;;;;;;;22.40;11.85;;;;;;;;;;6307539;22;20007;-92
2022/10/16 17:21:59;;;;;;;21.35;13.50;;;;;;;;;;6308873;22;20007;-91
2022/10/16 17:24:25;;;;;;;21.77;11.55;;;;;;;;;;6307727;22;20003;-91
2022/10/16 17:26:53;;;;;;;22.45;14.20;;;;;;;;;;6307637;22;20003;-91
2022/10/16 17:29:19;;;;;;;32.65;18.80;;;;;;;;;;6307875;22;20050;-91
2022/10/16 17:32:08;;;;;;;34.15;19.60;;;;;;;;;;6308082;22;20006;-91
2022/10/16 17:34:35;;;;;;;21.75;13.77;;;;;;;;;;6292180;22;20015;-91
2022/10/16 17:37:04;;;;;;;22.55;13.18;;;;;;;;;;6308440;22;20003;-91
2022/10/16 17:39:30;;;;;;;21.83;12.77;;;;;;;;;;6308062;22;20004;-92
2022/10/16 17:41:56;;;;;;;21.00;13.43;;;;;;;;;;6308251;22;20428;-93
2022/10/16 17:44:22;;;;;;;32.70;17.25;;;;;;;;;;6308018;22;20082;-92
2022/10/16 17:46:50;;;;;;;34.33;21.60;;;;;;;;;;6308808;22;20090;-92
2022/10/16 17:49:16;;;;;;;36.20;19.95;;;;;;;;;;6308158;22;20078;-96
2022/10/16 17:51:43;;;;;;;36.70;20.33;;;;;;;;;;6309244;22;20098;-92
2022/10/16 17:54:10;;;;;;;30.08;19.30;;;;;;;;;;6309811;22;20094;-92
2022/10/16 17:56:36;;;;;;;30.83;19.33;;;;;;;;;;6309023;22;20044;-96
2022/10/16 17:59:03;;;;;;;36.30;18.98;;;;;;;;;;6307835;22;20099;-93
2022/10/16 18:01:39;;;;;;;32.00;20.13;;;;;;;;;;6308296;22;20507;-92
2022/10/16 18:04:08;;;;;;;33.53;20.35;;;;;;;;;;6308039;22;20006;-89
2022/10/16 18:06:34;;;;;;;41.50;24.55;;;;;;;;;;6306469;22;20023;-91
2022/10/16 18:09:01;;;;;;;39.92;24.08;;;;;;;;;;6307158;22;20006;-90
2022/10/16 18:11:28;;;;;;;34.88;20.98;;;;;;;;;;6307977;22;20007;-91
2022/10/16 18:13:57;;;;;;;42.13;24.40;;;;;;;;;;6308248;22;20728;-92
2022/10/16 18:16:24;;;;;;;40.28;23.50;;;;;;;;;;6308433;22;20018;-91
2022/10/16 18:18:50;;;;;;;54.80;29.42;;;;;;;;;;6309400;22;20007;-92
2022/10/16 18:21:17;;;;;;;71.57;34.88;;;;;;;;;;6308084;22;19999;-88
2022/10/16 18:23:43;;;;;;;70.20;36.25;;;;;;;;;;6309647;22;20306;-89
2022/10/16 18:26:10;;;;;;;61.38;32.30;;;;;;;;;;6315898;22;20106;-90
2022/10/16 18:28:37;;;;;;;59.83;34.10;;;;;;;;;;6312414;22;20035;-90
2022/10/16 18:31:05;;;;;;;68.97;34.80;;;;;;;;;;6308081;22;20389;-91
2022/10/16 18:33:35;;;;;;;57.28;29.67;;;;;;;;;;6310944;22;20014;-91
2022/10/16 18:36:05;;;;;;;61.15;33.85;;;;;;;;;;6315427;22;20018;-90
2022/10/16 18:38:33;;;;;;;59.97;33.63;;;;;;;;;;6315579;22;20038;-91
2022/10/16 18:41:04;;;;;;;61.08;30.65;;;;;;;;;;6313016;22;20094;-93
2022/10/16 18:43:32;;;;;;;57.63;33.40;;;;;;;;;;6314023;22;20004;-93
2022/10/16 18:45:59;;;;;;;58.25;31.23;;;;;;;;;;6312479;22;20003;-92
2022/10/16 18:48:26;;;;;;;50.72;28.70;;;;;;;;;;6312745;22;20128;-93
2022/10/16 18:50:52;;;;;;;51.80;27.58;;;;;;;;;;6313921;22;20004;-92
2022/10/16 18:53:18;;;;;;;49.45;26.17;;;;;;;;;;6317968;22;20007;-90
2022/10/16 18:55:52;;;;;;;43.72;25.05;;;;;;;;;;6319292;22;20011;-92
2022/10/16 18:58:19;;;;;;;40.10;22.60;;;;;;;;;;6311525;22;20004;-93
2022/10/16 19:00:45;;;;;;;43.08;23.02;;;;;;;;;;6313686;22;20008;-95
2022/10/16 19:03:17;;;;;;;37.63;20.95;;;;;;;;;;6312787;22;19999;-92
2022/10/16 19:06:09;;;;;;;39.05;23.10;;;;;;;;;;6313559;22;20019;-91
2022/10/16 19:08:40;;;;;;;40.85;21.75;;;;;;;;;;6312713;22;20003;-92
2022/10/16 19:11:11;;;;;;;34.78;20.02;;;;;;;;;;6312202;22;20366;-91
2022/10/16 19:13:37;;;;;;;30.55;17.45;;;;;;;;;;6312264;22;20000;-94
2022/10/16 19:16:04;;;;;;;31.83;18.70;;;;;;;;;;6314261;22;19999;-93
2022/10/16 19:18:37;;;;;;;39.97;23.25;;;;;;;;;;6310234;22;20071;-91
2022/10/16 19:21:04;;;;;;;43.00;22.65;;;;;;;;;;6311055;22;20007;-90
2022/10/16 19:23:30;;;;;;;48.22;26.02;;;;;;;;;;6309307;22;20005;-91
2022/10/16 19:26:10;;;;;;;42.42;23.15;;;;;;;;;;6309476;22;20003;-92
2022/10/16 19:28:36;;;;;;;43.25;22.85;;;;;;;;;;6311076;22;20412;-92
2022/10/16 19:31:04;;;;;;;45.45;25.00;;;;;;;;;;6309473;22;20007;-93
2022/10/16 19:33:30;;;;;;;42.83;24.00;;;;;;;;;;6309611;22;19999;-91
2022/10/16 19:36:16;;;;;;;43.70;21.65;;;;;;;;;;6309037;22;20060;-92
2022/10/16 19:38:43;;;;;;;30.67;18.50;;;;;;;;;;6309718;22;20493;-92
2022/10/16 19:41:19;;;;;;;30.70;16.70;;;;;;;;;;6310638;22;20086;-91
2022/10/16 19:43:45;;;;;;;26.50;16.27;;;;;;;;;;6310287;22;20000;-92
2022/10/16 19:46:13;;;;;;;27.42;15.52;;;;;;;;;;6310248;22;20057;-92
2022/10/16 19:48:39;;;;;;;25.90;15.65;;;;;;;;;;6309789;22;20003;-92
2022/10/16 19:51:06;;;;;;;27.85;16.67;;;;;;;;;;6310187;22;20079;-92
2022/10/16 19:53:33;;;;;;;31.20;17.73;;;;;;;;;;6310263;22;20003;-92
2022/10/16 19:55:59;;;;;;;26.98;14.93;;;;;;;;;;6308752;22;20011;-92
2022/10/16 19:58:25;;;;;;;30.48;14.95;;;;;;;;;;6309535;22;20092;-93
2022/10/16 20:00:53;;;;;;;39.55;19.38;;;;;;;;;;6310904;22;20475;-92
2022/10/16 20:03:19;;;;;;;32.83;18.02;;;;;;;;;;6311285;22;20078;-95
2022/10/16 20:05:55;;;;;;;32.85;17.02;;;;;;;;;;6310332;22;20015;-94
2022/10/16 20:08:22;;;;;;;26.90;15.30;;;;;;;;;;6309896;22;20004;-93
2022/10/16 20:10:54;;;;;;;28.60;16.08;;;;;;;;;;6312008;22;20011;-94
2022/10/16 20:13:21;;;;;;;24.13;14.65;;;;;;;;;;6310626;22;19999;-94
2022/10/16 20:15:47;;;;;;;26.58;15.98;;;;;;;;;;6310449;22;20098;-95
2022/10/16 20:18:14;;;;;;;26.42;15.27;;;;;;;;;;6323783;22;20003;-91
2022/10/16 20:20:51;;;;;;;24.33;14.05;;;;;;;;;;6298886;22;20015;-93
2022/10/16 20:23:18;;;;;;;25.80;13.95;;;;;;;;;;6314753;22;20007;-92
2022/10/16 20:25:44;;;;;;;27.40;15.55;;;;;;;;;;6309875;22;20428;-93
2022/10/16 20:28:12;;;;;;;28.67;13.70;;;;;;;;;;6312096;22;20435;-94
2022/10/16 20:30:40;;;;;;;23.33;13.18;;;;;;;;;;6310653;22;20030;-94
2022/10/16 20:33:17;;;;;;;23.55;12.98;;;;;;;;;;6311368;22;20078;-95
2022/10/16 20:35:52;;;;;;;20.58;12.40;;;;;;;;;;6312262;22;20105;-94
2022/10/16 20:38:21;;;;;;;20.55;11.80;;;;;;;;;;6311741;22;20003;-95
2022/10/16 20:40:54;;;;;;;22.42;12.38;;;;;;;;;;6310672;22;20033;-94
2022/10/16 20:43:20;;;;;;;17.00;10.93;;;;;;;;;;6311460;22;19999;-94
2022/10/16 20:45:46;;;;;;;21.20;11.25;;;;;;;;;;6314493;22;20007;-93
2022/10/16 20:48:13;;;;;;;19.45;11.30;;;;;;;;;;6312146;22;20049;-92
2022/10/16 20:50:40;;;;;;;19.85;11.10;;;;;;;;;;6312482;22;20060;-94
2022/10/16 20:53:07;;;;;;;18.92;10.63;;;;;;;;;;6312031;22;20082;-94
2022/10/16 20:55:35;;;;;;;23.27;9.85;;;;;;;;;;6311578;22;20019;-94
2022/10/16 20:58:01;;;;;;;19.35;10.30;;;;;;;;;;6312543;22;20000;-94
2022/10/16 21:00:27;;;;;;;19.92;10.82;;;;;;;;;;6310058;22;20086;-95
2022/10/16 21:02:55;;;;;;;19.50;9.55;;;;;;;;;;6309406;22;20004;-93
2022/10/16 21:05:21;;;;;;;25.67;11.43;;;;;;;;;;6285375;22;20362;-93
2022/10/16 21:07:47;;;;;;;18.50;9.60;;;;;;;;;;6314472;22;20006;-94
2022/10/16 21:10:13;;;;;;;16.80;8.93;;;;;;;;;;6316199;22;20060;-94
2022/10/16 21:12:39;;;;;;;15.10;9.50;;;;;;;;;;6316327;22;20391;-94
2022/10/16 21:15:06;;;;;;;18.85;9.02;;;;;;;;;;6315494;22;20045;-94
2022/10/16 21:17:32;;;;;;;17.15;9.70;;;;;;;;;;6314961;22;20026;-94
2022/10/16 21:19:58;;;;;;;19.33;9.10;;;;;;;;;;6313582;22;20412;-92
2022/10/16 21:22:28;;;;;;;15.98;8.00;;;;;;;;;;6316011;22;20003;-95
2022/10/16 21:25:00;;;;;;;15.68;9.05;;;;;;;;;;6314451;22;20089;-93
2022/10/16 21:27:26;;;;;;;15.35;9.00;;;;;;;;;;6313454;22;20014;-93
2022/10/16 21:29:53;;;;;;;18.88;8.45;;;;;;;;;;6314870;22;20010;-94
2022/10/16 21:32:22;;;;;;;18.48;8.02;;;;;;;;;;6314418;22;20010;-94
2022/10/16 21:34:49;;;;;;;14.25;8.02;;;;;;;;;;6336942;22;20011;-95
2022/10/16 21:37:15;;;;;;;17.83;8.70;;;;;;;;;;6314496;22;19998;-94
2022/10/16 21:39:41;;;;;;;13.93;8.00;;;;;;;;;;6314372;22;20013;-94
2022/10/16 21:42:07;;;;;;;15.18;7.53;;;;;;;;;;6315086;22;20003;-93
2022/10/16 21:44:37;;;;;;;12.25;7.65;;;;;;;;;;6325444;22;20025;-91
2022/10/16 21:47:03;;;;;;;16.58;8.43;;;;;;;;;;6321144;22;20006;-94
2022/10/16 21:49:29;;;;;;;17.10;8.75;;;;;;;;;;6315055;22;20006;-94
2022/10/16 21:51:56;;;;;;;18.35;10.25;;;;;;;;;;6313771;22;20048;-94
2022/10/16 21:54:23;;;;;;;14.43;8.18;;;;;;;;;;6313626;22;20014;-93
2022/10/16 21:56:49;;;;;;;11.80;6.93;;;;;;;;;;6313058;22;20038;-93
2022/10/16 21:59:16;;;;;;;14.80;7.03;;;;;;;;;;6314386;22;19998;-93
2022/10/16 22:01:43;;;;;;;14.10;7.65;;;;;;;;;;6314634;22;20063;-93
2022/10/16 22:04:10;;;;;;;12.90;6.47;;;;;;;;;;6342813;22;20056;-94
2022/10/16 22:06:36;;;;;;;14.10;7.10;;;;;;;;;;6313445;22;20022;-94
2022/10/16 22:09:03;;;;;;;11.75;7.18;;;;;;;;;;6314570;22;19999;-94
2022/10/16 22:11:35;;;;;;;12.27;7.25;;;;;;;;;;6314749;22;20049;-95
2022/10/16 22:14:02;;;;;;;12.82;7.13;;;;;;;;;;6313398;22;20003;-94
2022/10/16 22:16:29;;;;;;;13.95;7.35;;;;;;;;;;6316185;22;20003;-94
2022/10/16 22:18:56;;;;;;;13.00;7.47;;;;;;;;;;6314039;22;20416;-94
2022/10/16 22:21:23;;;;;;;13.35;7.07;;;;;;;;;;6315217;22;20006;-93
2022/10/16 22:23:49;;;;;;;12.30;6.57;;;;;;;;;;6314577;22;20022;-94
2022/10/16 22:26:23;;;;;;;14.43;7.53;;;;;;;;;;6319149;22;20034;-93
2022/10/16 22:28:49;;;;;;;;;;;;;;;;;;6327582;22;20003;-92
2022/10/16 22:31:15;;;;;;;16.25;6.47;;;;;;;;;;6315930;22;19985;-94
2022/10/16 22:33:42;;;;;;;13.85;7.43;;;;;;;;;;6314421;22;20007;-94
2022/10/16 22:36:10;;;;;;;13.20;7.90;;;;;;;;;;6316210;22;20431;-95
2022/10/16 22:38:36;;;;;;;13.13;7.30;;;;;;;;;;6314299;22;20082;-95
2022/10/16 22:41:12;;;;;;;11.73;6.70;;;;;;;;;;6314963;22;20003;-95
2022/10/16 22:43:40;;;;;;;12.60;7.00;;;;;;;;;;6315009;22;20006;-95
2022/10/16 22:46:07;;;;;;;11.55;7.07;;;;;;;;;;6317921;22;20009;-95
2022/10/16 22:48:34;;;;;;;13.98;6.10;;;;;;;;;;6315103;22;20053;-94
2022/10/16 22:51:01;;;;;;;11.88;6.30;;;;;;;;;;6315697;22;19999;-93
2022/10/16 22:53:27;;;;;;;9.88;5.60;;;;;;;;;;6314430;22;20427;-95
2022/10/16 22:55:53;;;;;;;14.02;6.82;;;;;;;;;;6313687;22;20457;-94
2022/10/16 22:58:20;;;;;;;11.32;7.25;;;;;;;;;;6315184;22;20002;-94
2022/10/16 23:00:46;;;;;;;11.60;6.85;;;;;;;;;;6315154;22;20003;-94
2022/10/16 23:03:12;;;;;;;13.15;5.60;;;;;;;;;;6314573;22;20002;-92
2022/10/16 23:05:39;;;;;;;10.30;6.43;;;;;;;;;;6313306;22;19999;-94
2022/10/16 23:08:06;;;;;;;12.43;6.88;;;;;;;;;;6316300;22;20006;-94
2022/10/16 23:10:32;;;;;;;13.40;6.07;;;;;;;;;;6315465;22;20008;-94
2022/10/16 23:12:58;;;;;;;23.73;7.18;;;;;;;;;;6314723;22;20086;-94
2022/10/16 23:15:24;;;;;;;10.70;6.90;;;;;;;;;;6315293;22;20038;-94
2022/10/16 23:17:50;;;;;;;13.77;6.30;;;;;;;;;;6315452;22;20036;-95
2022/10/16 23:20:17;;;;;;;10.52;6.90;;;;;;;;;;6314760;22;20094;-95
2022/10/16 23:22:43;;;;;;;10.40;6.43;;;;;;;;;;6314210;22;20007;-94
2022/10/16 23:25:09;;;;;;;15.88;7.88;;;;;;;;;;6315911;22;20085;-95
2022/10/16 23:27:44;;;;;;;15.30;6.38;;;;;;;;;;6315187;22;19999;-93
2022/10/16 23:30:11;;;;;;;10.55;6.70;;;;;;;;;;6345195;22;20431;-92
2022/10/16 23:32:38;;;;;;;13.90;6.57;;;;;;;;;;6290908;22;19999;-94
2022/10/16 23:35:11;;;;;;;12.13;6.30;;;;;;;;;;6316752;22;20003;-94
2022/10/16 23:37:43;;;;;;;13.80;6.35;;;;;;;;;;6316840;22;20003;-95
2022/10/16 23:40:12;;;;;;;18.25;6.05;;;;;;;;;;6315296;22;20093;-94
2022/10/16 23:42:38;;;;;;;14.38;6.45;;;;;;;;;;6317058;22;20003;-93
2022/10/16 23:45:06;;;;;;;13.90;7.53;;;;;;;;;;6315716;22;20335;-95
2022/10/16 23:47:32;;;;;;;12.98;6.88;;;;;;;;;;6315910;22;20003;-94
2022/10/16 23:49:59;;;;;;;14.48;6.68;;;;;;;;;;6345276;22;19990;-93
2022/10/16 23:52:25;;;;;;;12.68;5.75;;;;;;;;;;6315035;22;20377;-94
2022/10/16 23:54:51;;;;;;;9.07;5.68;;;;;;;;;;6316812;22;20007;-95
2022/10/16 23:57:18;;;;;;;10.38;5.47;;;;;;;;;;6315341;22;20013;-93
2022/10/16 23:59:44;;;;;;;10.88;6.00;;;;;;;;;;6314219;22;20067;-94
